sensor_id;sensor_type;location;lat;lon;timestamp;temperature;humidity
702;DHT22;334;48.808;9.222;2022-11-20T00:00:44;9.20;8.90
702;DHT22;334;48.808;9.222;2022-11-20T00:01:46;9.20;9.10
702;DHT22;334;48.808;9.222;2022-11-20T00:02:48;9.20;9.10
702;DHT22;334;48.808;9.222;2022-11-20T00:03:51;9.20;9.10
702;DHT22;334;48.808;9.222;2022-11-20T00:04:53;9.20;9.10
702;DHT22;334;48.808;9.222;2022-11-20T00:06:00;9.20;9.10
702;DHT22;334;48.808;9.222;2022-11-20T00:07:02;9.20;9.10
702;DHT22;334;48.808;9.222;2022-11-20T00:08:04;9.20;9.10
702;DHT22;334;48.808;9.222;2022-11-20T00:09:06;9.20;9.10
702;DHT22;334;48.808;9.222;2022-11-20T00:10:08;9.20;9.10
702;DHT22;334;48.808;9.222;2022-11-20T00:11:18;9.20;9.40
702;DHT22;334;48.808;9.222;2022-11-20T00:12:21;9.20;9.50
702;DHT22;334;48.808;9.222;2022-11-20T00:13:23;9.20;9.30
702;DHT22;334;48.808;9.222;2022-11-20T00:14:25;9.20;9.10
702;DHT22;334;48.808;9.222;2022-11-20T00:15:26;9.20;9.10
702;DHT22;334;48.808;9.222;2022-11-20T00:16:31;9.30;9.40
702;DHT22;334;48.808;9.222;2022-11-20T00:17:33;9.20;9.50
702;DHT22;334;48.808;9.222;2022-11-20T00:18:35;9.20;9.10
702;DHT22;334;48.808;9.222;2022-11-20T00:19:37;9.20;9.60
702;DHT22;334;48.808;9.222;2022-11-20T00:21:03;9.20;9.30
702;DHT22;334;48.808;9.222;2022-11-20T00:22:05;9.10;9.40
702;DHT22;334;48.808;9.222;2022-11-20T00:23:08;9.30;9.50
702;DHT22;334;48.808;9.222;2022-11-20T00:24:10;9.30;9.20
702;DHT22;334;48.808;9.222;2022-11-20T00:25:13;9.20;9.80
702;DHT22;334;48.808;9.222;2022-11-20T00:26:18;9.20;9.70
702;DHT22;334;48.808;9.222;2022-11-20T00:27:21;9.30;9.60
702;DHT22;334;48.808;9.222;2022-11-20T00:28:22;9.30;9.50
702;DHT22;334;48.808;9.222;2022-11-20T00:29:28;9.20;9.30
702;DHT22;334;48.808;9.222;2022-11-20T00:30:30;9.20;9.30
702;DHT22;334;48.808;9.222;2022-11-20T00:31:32;9.20;9.10
702;DHT22;334;48.808;9.222;2022-11-20T00:32:34;9.20;9.50
702;DHT22;334;48.808;9.222;2022-11-20T00:33:36;9.10;9.60
702;DHT22;334;48.808;9.222;2022-11-20T00:34:38;9.10;9.70
702;DHT22;334;48.808;9.222;2022-11-20T00:35:40;9.10;10.20
702;DHT22;334;48.808;9.222;2022-11-20T00:36:42;9.10;10.90
702;DHT22;334;48.808;9.222;2022-11-20T00:37:44;9.10;10.20
702;DHT22;334;48.808;9.222;2022-11-20T00:38:46;9.10;10.30
702;DHT22;334;48.808;9.222;2022-11-20T00:39:49;9.20;11.00
702;DHT22;334;48.808;9.222;2022-11-20T00:40:58;9.20;10.30
702;DHT22;334;48.808;9.222;2022-11-20T00:42:00;9.20;10.80
702;DHT22;334;48.808;9.222;2022-11-20T00:43:02;9.20;10.20
702;DHT22;334;48.808;9.222;2022-11-20T00:44:04;9.20;10.10
702;DHT22;334;48.808;9.222;2022-11-20T00:45:07;9.20;9.70
702;DHT22;334;48.808;9.222;2022-11-20T00:46:12;9.20;10.00
702;DHT22;334;48.808;9.222;2022-11-20T00:47:17;9.20;10.00
702;DHT22;334;48.808;9.222;2022-11-20T00:48:19;9.20;9.80
702;DHT22;334;48.808;9.222;2022-11-20T00:49:20;9.20;9.30
702;DHT22;334;48.808;9.222;2022-11-20T00:50:23;9.20;10.00
702;DHT22;334;48.808;9.222;2022-11-20T00:51:26;9.20;10.20
702;DHT22;334;48.808;9.222;2022-11-20T00:52:28;9.10;9.70
702;DHT22;334;48.808;9.222;2022-11-20T00:53:30;9.10;10.60
702;DHT22;334;48.808;9.222;2022-11-20T00:54:32;9.10;10.40
702;DHT22;334;48.808;9.222;2022-11-20T00:55:35;9.20;10.40
702;DHT22;334;48.808;9.222;2022-11-20T00:56:36;9.10;10.60
702;DHT22;334;48.808;9.222;2022-11-20T00:57:40;9.20;10.60
702;DHT22;334;48.808;9.222;2022-11-20T00:58:43;9.10;10.40
702;DHT22;334;48.808;9.222;2022-11-20T00:59:45;9.20;10.40
702;DHT22;334;48.808;9.222;2022-11-20T01:00:47;9.20;10.30
702;DHT22;334;48.808;9.222;2022-11-20T01:01:51;9.20;10.30
702;DHT22;334;48.808;9.222;2022-11-20T01:02:55;9.20;10.30
702;DHT22;334;48.808;9.222;2022-11-20T01:03:59;9.20;10.30
702;DHT22;334;48.808;9.222;2022-11-20T01:05:02;9.20;10.30
702;DHT22;334;48.808;9.222;2022-11-20T01:06:16;9.20;10.30
702;DHT22;334;48.808;9.222;2022-11-20T01:07:18;9.20;10.70
702;DHT22;334;48.808;9.222;2022-11-20T01:08:20;9.20;10.50
702;DHT22;334;48.808;9.222;2022-11-20T01:09:22;9.20;10.50
702;DHT22;334;48.808;9.222;2022-11-20T01:10:25;9.20;10.30
702;DHT22;334;48.808;9.222;2022-11-20T01:11:31;9.20;10.20
702;DHT22;334;48.808;9.222;2022-11-20T01:12:33;9.30;10.40
702;DHT22;334;48.808;9.222;2022-11-20T01:13:35;9.30;10.30
702;DHT22;334;48.808;9.222;2022-11-20T01:14:43;9.30;10.30
702;DHT22;334;48.808;9.222;2022-11-20T01:15:45;9.30;9.90
702;DHT22;334;48.808;9.222;2022-11-20T01:16:50;9.30;9.90
702;DHT22;334;48.808;9.222;2022-11-20T01:17:52;9.30;10.10
702;DHT22;334;48.808;9.222;2022-11-20T01:18:56;9.30;10.00
702;DHT22;334;48.808;9.222;2022-11-20T01:19:59;9.30;9.90
702;DHT22;334;48.808;9.222;2022-11-20T01:21:03;9.30;10.10
702;DHT22;334;48.808;9.222;2022-11-20T01:22:08;9.30;10.00
702;DHT22;334;48.808;9.222;2022-11-20T01:23:11;9.30;10.00
702;DHT22;334;48.808;9.222;2022-11-20T01:24:15;9.20;9.90
702;DHT22;334;48.808;9.222;2022-11-20T01:25:17;9.30;9.90
702;DHT22;334;48.808;9.222;2022-11-20T01:26:24;9.20;10.00
702;DHT22;334;48.808;9.222;2022-11-20T01:27:26;9.30;10.20
702;DHT22;334;48.808;9.222;2022-11-20T01:28:29;9.30;9.90
702;DHT22;334;48.808;9.222;2022-11-20T01:29:31;9.30;10.00
702;DHT22;334;48.808;9.222;2022-11-20T01:30:33;9.30;10.10
702;DHT22;334;48.808;9.222;2022-11-20T01:31:36;9.20;10.00
702;DHT22;334;48.808;9.222;2022-11-20T01:32:38;9.30;10.20
702;DHT22;334;48.808;9.222;2022-11-20T01:33:41;9.30;10.10
702;DHT22;334;48.808;9.222;2022-11-20T01:34:45;9.30;10.20
702;DHT22;334;48.808;9.222;2022-11-20T01:35:47;9.30;10.30
702;DHT22;334;48.808;9.222;2022-11-20T01:36:50;9.30;10.30
702;DHT22;334;48.808;9.222;2022-11-20T01:37:52;9.30;10.50
702;DHT22;334;48.808;9.222;2022-11-20T01:38:56;9.30;10.40
702;DHT22;334;48.808;9.222;2022-11-20T01:39:59;9.30;10.40
702;DHT22;334;48.808;9.222;2022-11-20T01:41:00;9.30;10.30
702;DHT22;334;48.808;9.222;2022-11-20T01:42:02;9.30;10.30
702;DHT22;334;48.808;9.222;2022-11-20T01:43:23;9.30;10.30
702;DHT22;334;48.808;9.222;2022-11-20T01:45:56;9.30;10.20
702;DHT22;334;48.808;9.222;2022-11-20T01:47:05;9.30;10.00
702;DHT22;334;48.808;9.222;2022-11-20T01:48:08;9.30;9.90
702;DHT22;334;48.808;9.222;2022-11-20T01:49:21;9.30;10.10
702;DHT22;334;48.808;9.222;2022-11-20T01:50:27;9.30;10.10
702;DHT22;334;48.808;9.222;2022-11-20T01:51:50;9.30;9.90
702;DHT22;334;48.808;9.222;2022-11-20T01:53:03;9.30;9.90
702;DHT22;334;48.808;9.222;2022-11-20T01:54:13;9.30;10.10
702;DHT22;334;48.808;9.222;2022-11-20T01:55:20;9.20;9.90
702;DHT22;334;48.808;9.222;2022-11-20T01:56:23;9.20;9.90
702;DHT22;334;48.808;9.222;2022-11-20T01:57:28;9.20;10.00
702;DHT22;334;48.808;9.222;2022-11-20T01:58:34;9.20;10.00
702;DHT22;334;48.808;9.222;2022-11-20T01:59:40;9.20;10.20
702;DHT22;334;48.808;9.222;2022-11-20T02:00:43;9.20;10.40
702;DHT22;334;48.808;9.222;2022-11-20T02:01:45;9.20;10.40
702;DHT22;334;48.808;9.222;2022-11-20T02:03:03;9.20;10.50
702;DHT22;334;48.808;9.222;2022-11-20T02:04:08;9.20;10.50
702;DHT22;334;48.808;9.222;2022-11-20T02:05:45;9.20;10.60
702;DHT22;334;48.808;9.222;2022-11-20T02:07:02;9.20;10.20
702;DHT22;334;48.808;9.222;2022-11-20T02:08:06;9.20;10.60
702;DHT22;334;48.808;9.222;2022-11-20T02:09:08;9.10;10.80
702;DHT22;334;48.808;9.222;2022-11-20T02:10:11;9.10;11.10
702;DHT22;334;48.808;9.222;2022-11-20T02:11:13;9.10;11.00
702;DHT22;334;48.808;9.222;2022-11-20T02:12:15;9.10;10.90
702;DHT22;334;48.808;9.222;2022-11-20T02:13:36;9.10;10.80
702;DHT22;334;48.808;9.222;2022-11-20T02:14:47;9.10;10.80
702;DHT22;334;48.808;9.222;2022-11-20T02:15:49;9.20;11.20
702;DHT22;334;48.808;9.222;2022-11-20T02:16:51;9.10;11.70
702;DHT22;334;48.808;9.222;2022-11-20T02:17:53;9.10;11.40
702;DHT22;334;48.808;9.222;2022-11-20T02:18:59;9.10;11.10
702;DHT22;334;48.808;9.222;2022-11-20T02:20:02;9.10;11.30
702;DHT22;334;48.808;9.222;2022-11-20T02:21:15;9.10;11.40
702;DHT22;334;48.808;9.222;2022-11-20T02:22:33;9.10;11.70
702;DHT22;334;48.808;9.222;2022-11-20T02:23:39;9.10;11.70
702;DHT22;334;48.808;9.222;2022-11-20T02:24:45;9.10;11.70
702;DHT22;334;48.808;9.222;2022-11-20T02:25:53;9.20;11.50
702;DHT22;334;48.808;9.222;2022-11-20T02:28:01;9.20;11.30
702;DHT22;334;48.808;9.222;2022-11-20T02:29:03;9.20;11.40
702;DHT22;334;48.808;9.222;2022-11-20T02:30:06;9.20;11.40
702;DHT22;334;48.808;9.222;2022-11-20T02:31:09;9.20;11.30
702;DHT22;334;48.808;9.222;2022-11-20T02:32:23;9.20;11.30
702;DHT22;334;48.808;9.222;2022-11-20T02:33:25;9.30;11.40
702;DHT22;334;48.808;9.222;2022-11-20T02:34:27;9.30;11.20
702;DHT22;334;48.808;9.222;2022-11-20T02:36:32;9.30;11.10
702;DHT22;334;48.808;9.222;2022-11-20T02:37:38;9.30;10.60
702;DHT22;334;48.808;9.222;2022-11-20T02:38:41;9.30;8.50
702;DHT22;334;48.808;9.222;2022-11-20T02:39:47;9.20;8.30
702;DHT22;334;48.808;9.222;2022-11-20T02:40:50;9.20;8.10
702;DHT22;334;48.808;9.222;2022-11-20T02:41:56;9.20;8.30
702;DHT22;334;48.808;9.222;2022-11-20T02:42:58;9.20;7.00
702;DHT22;334;48.808;9.222;2022-11-20T02:44:01;9.20;7.20
702;DHT22;334;48.808;9.222;2022-11-20T02:45:04;9.20;7.40
702;DHT22;334;48.808;9.222;2022-11-20T02:46:07;9.20;7.00
702;DHT22;334;48.808;9.222;2022-11-20T02:47:11;9.20;6.60
702;DHT22;334;48.808;9.222;2022-11-20T02:48:13;9.20;6.30
702;DHT22;334;48.808;9.222;2022-11-20T02:49:15;9.20;6.10
702;DHT22;334;48.808;9.222;2022-11-20T02:50:19;9.20;6.10
702;DHT22;334;48.808;9.222;2022-11-20T02:51:21;9.20;5.70
702;DHT22;334;48.808;9.222;2022-11-20T02:52:25;9.10;5.20
702;DHT22;334;48.808;9.222;2022-11-20T02:53:27;9.10;5.20
702;DHT22;334;48.808;9.222;2022-11-20T02:54:29;9.10;5.20
702;DHT22;334;48.808;9.222;2022-11-20T02:55:31;9.10;5.20
702;DHT22;334;48.808;9.222;2022-11-20T02:56:33;9.10;5.40
702;DHT22;334;48.808;9.222;2022-11-20T02:57:35;9.20;5.20
702;DHT22;334;48.808;9.222;2022-11-20T02:58:37;9.20;5.20
702;DHT22;334;48.808;9.222;2022-11-20T02:59:39;9.20;5.20
702;DHT22;334;48.808;9.222;2022-11-20T03:00:42;9.20;5.20
702;DHT22;334;48.808;9.222;2022-11-20T03:01:44;9.20;5.20
702;DHT22;334;48.808;9.222;2022-11-20T03:02:46;9.20;5.20
702;DHT22;334;48.808;9.222;2022-11-20T03:03:48;9.20;5.00
702;DHT22;334;48.808;9.222;2022-11-20T03:04:50;9.20;4.60
702;DHT22;334;48.808;9.222;2022-11-20T03:05:52;9.20;3.80
702;DHT22;334;48.808;9.222;2022-11-20T03:06:54;9.20;3.90
702;DHT22;334;48.808;9.222;2022-11-20T03:07:56;9.30;4.00
702;DHT22;334;48.808;9.222;2022-11-20T03:08:58;9.30;3.90
702;DHT22;334;48.808;9.222;2022-11-20T03:10:03;9.30;4.00
702;DHT22;334;48.808;9.222;2022-11-20T03:11:07;9.30;4.00
702;DHT22;334;48.808;9.222;2022-11-20T03:12:11;9.30;4.20
702;DHT22;334;48.808;9.222;2022-11-20T03:13:14;9.30;4.10
702;DHT22;334;48.808;9.222;2022-11-20T03:14:16;9.30;4.30
702;DHT22;334;48.808;9.222;2022-11-20T03:15:19;9.30;4.20
702;DHT22;334;48.808;9.222;2022-11-20T03:16:22;9.30;4.30
702;DHT22;334;48.808;9.222;2022-11-20T03:17:24;9.30;4.00
702;DHT22;334;48.808;9.222;2022-11-20T03:18:28;9.30;3.50
702;DHT22;334;48.808;9.222;2022-11-20T03:19:30;9.30;3.50
702;DHT22;334;48.808;9.222;2022-11-20T03:20:33;9.20;2.70
702;DHT22;334;48.808;9.222;2022-11-20T03:21:35;9.20;3.00
702;DHT22;334;48.808;9.222;2022-11-20T03:22:40;9.20;3.40
702;DHT22;334;48.808;9.222;2022-11-20T03:23:42;9.10;3.10
702;DHT22;334;48.808;9.222;2022-11-20T03:24:44;9.10;3.40
702;DHT22;334;48.808;9.222;2022-11-20T03:25:46;9.10;3.80
702;DHT22;334;48.808;9.222;2022-11-20T03:26:48;9.10;4.10
702;DHT22;334;48.808;9.222;2022-11-20T03:27:51;9.10;4.00
702;DHT22;334;48.808;9.222;2022-11-20T03:28:55;9.10;4.00
702;DHT22;334;48.808;9.222;2022-11-20T03:29:57;9.10;3.50
702;DHT22;334;48.808;9.222;2022-11-20T03:31:12;9.00;3.40
702;DHT22;334;48.808;9.222;2022-11-20T03:32:13;9.00;3.80
702;DHT22;334;48.808;9.222;2022-11-20T03:33:18;9.00;4.30
702;DHT22;334;48.808;9.222;2022-11-20T03:34:20;9.00;3.90
702;DHT22;334;48.808;9.222;2022-11-20T03:35:21;9.00;3.90
702;DHT22;334;48.808;9.222;2022-11-20T03:36:24;9.00;4.10
702;DHT22;334;48.808;9.222;2022-11-20T03:37:26;9.00;4.20
702;DHT22;334;48.808;9.222;2022-11-20T03:38:29;9.00;4.40
702;DHT22;334;48.808;9.222;2022-11-20T03:39:32;8.90;4.00
702;DHT22;334;48.808;9.222;2022-11-20T03:40:34;8.90;4.10
702;DHT22;334;48.808;9.222;2022-11-20T03:41:39;9.00;4.10
702;DHT22;334;48.808;9.222;2022-11-20T03:42:43;9.00;4.20
702;DHT22;334;48.808;9.222;2022-11-20T03:44:03;8.90;4.20
702;DHT22;334;48.808;9.222;2022-11-20T03:45:06;9.00;4.60
702;DHT22;334;48.808;9.222;2022-11-20T03:46:08;9.00;4.90
702;DHT22;334;48.808;9.222;2022-11-20T03:47:10;9.00;4.50
702;DHT22;334;48.808;9.222;2022-11-20T03:48:12;9.00;4.10
702;DHT22;334;48.808;9.222;2022-11-20T03:49:14;9.00;3.90
702;DHT22;334;48.808;9.222;2022-11-20T03:50:16;9.00;3.90
702;DHT22;334;48.808;9.222;2022-11-20T03:51:26;9.00;4.00
702;DHT22;334;48.808;9.222;2022-11-20T03:52:28;9.00;4.20
702;DHT22;334;48.808;9.222;2022-11-20T03:53:30;8.70;4.20
702;DHT22;334;48.808;9.222;2022-11-20T03:54:32;9.00;4.50
702;DHT22;334;48.808;9.222;2022-11-20T03:55:34;9.00;4.40
702;DHT22;334;48.808;9.222;2022-11-20T03:56:37;9.00;4.40
702;DHT22;334;48.808;9.222;2022-11-20T03:57:39;9.00;4.00
702;DHT22;334;48.808;9.222;2022-11-20T03:58:41;9.10;3.90
702;DHT22;334;48.808;9.222;2022-11-20T03:59:43;9.00;3.30
702;DHT22;334;48.808;9.222;2022-11-20T04:00:45;9.00;3.70
702;DHT22;334;48.808;9.222;2022-11-20T04:01:46;9.00;3.60
702;DHT22;334;48.808;9.222;2022-11-20T04:02:51;9.10;3.70
702;DHT22;334;48.808;9.222;2022-11-20T04:03:54;9.10;3.40
702;DHT22;334;48.808;9.222;2022-11-20T04:04:58;9.10;3.50
702;DHT22;334;48.808;9.222;2022-11-20T04:06:06;9.00;3.20
702;DHT22;334;48.808;9.222;2022-11-20T04:07:08;9.00;3.10
702;DHT22;334;48.808;9.222;2022-11-20T04:08:10;9.00;2.70
702;DHT22;334;48.808;9.222;2022-11-20T04:09:12;9.00;3.10
702;DHT22;334;48.808;9.222;2022-11-20T04:10:14;9.00;3.10
702;DHT22;334;48.808;9.222;2022-11-20T04:11:22;9.00;3.30
702;DHT22;334;48.808;9.222;2022-11-20T04:12:25;9.00;3.20
702;DHT22;334;48.808;9.222;2022-11-20T04:13:27;9.00;2.80
702;DHT22;334;48.808;9.222;2022-11-20T04:14:28;9.00;2.90
702;DHT22;334;48.808;9.222;2022-11-20T04:15:30;9.00;3.10
702;DHT22;334;48.808;9.222;2022-11-20T04:16:38;9.00;3.00
702;DHT22;334;48.808;9.222;2022-11-20T04:17:41;9.00;3.10
702;DHT22;334;48.808;9.222;2022-11-20T04:18:43;9.00;2.70
702;DHT22;334;48.808;9.222;2022-11-20T04:19:45;9.00;2.70
702;DHT22;334;48.808;9.222;2022-11-20T04:20:47;9.00;2.80
702;DHT22;334;48.808;9.222;2022-11-20T04:21:50;9.00;2.90
702;DHT22;334;48.808;9.222;2022-11-20T04:23:05;9.00;3.00
702;DHT22;334;48.808;9.222;2022-11-20T04:24:08;9.00;3.10
702;DHT22;334;48.808;9.222;2022-11-20T04:25:11;9.00;3.10
702;DHT22;334;48.808;9.222;2022-11-20T04:26:14;9.00;3.20
702;DHT22;334;48.808;9.222;2022-11-20T04:27:16;9.10;3.30
702;DHT22;334;48.808;9.222;2022-11-20T04:28:19;9.10;3.10
702;DHT22;334;48.808;9.222;2022-11-20T04:29:21;9.10;3.20
702;DHT22;334;48.808;9.222;2022-11-20T04:30:23;9.10;3.30
702;DHT22;334;48.808;9.222;2022-11-20T04:31:31;9.10;3.30
702;DHT22;334;48.808;9.222;2022-11-20T04:32:33;9.10;3.20
702;DHT22;334;48.808;9.222;2022-11-20T04:33:36;9.20;3.20
702;DHT22;334;48.808;9.222;2022-11-20T04:34:40;9.20;3.00
702;DHT22;334;48.808;9.222;2022-11-20T04:35:43;9.20;2.90
702;DHT22;334;48.808;9.222;2022-11-20T04:36:45;9.20;2.90
702;DHT22;334;48.808;9.222;2022-11-20T04:37:50;9.20;2.70
702;DHT22;334;48.808;9.222;2022-11-20T04:38:54;9.20;2.70
702;DHT22;334;48.808;9.222;2022-11-20T04:39:57;9.20;2.80
702;DHT22;334;48.808;9.222;2022-11-20T04:41:01;9.20;2.70
702;DHT22;334;48.808;9.222;2022-11-20T04:42:03;9.20;2.80
702;DHT22;334;48.808;9.222;2022-11-20T04:43:24;9.20;2.80
702;DHT22;334;48.808;9.222;2022-11-20T04:44:26;9.20;2.40
702;DHT22;334;48.808;9.222;2022-11-20T04:45:28;9.20;2.40
702;DHT22;334;48.808;9.222;2022-11-20T04:46:31;9.20;2.30
702;DHT22;334;48.808;9.222;2022-11-20T04:47:34;9.20;1.90
702;DHT22;334;48.808;9.222;2022-11-20T04:48:36;9.20;2.30
702;DHT22;334;48.808;9.222;2022-11-20T04:49:37;9.20;2.00
702;DHT22;334;48.808;9.222;2022-11-20T04:50:40;9.20;1.70
702;DHT22;334;48.808;9.222;2022-11-20T04:51:42;9.20;2.50
702;DHT22;334;48.808;9.222;2022-11-20T04:52:44;9.20;2.70
702;DHT22;334;48.808;9.222;2022-11-20T04:53:46;9.20;2.10
702;DHT22;334;48.808;9.222;2022-11-20T04:54:48;9.20;1.30
702;DHT22;334;48.808;9.222;2022-11-20T04:55:51;9.20;1.30
702;DHT22;334;48.808;9.222;2022-11-20T04:57:02;9.20;1.70
702;DHT22;334;48.808;9.222;2022-11-20T04:58:04;9.20;1.30
702;DHT22;334;48.808;9.222;2022-11-20T04:59:06;9.10;1.20
702;DHT22;334;48.808;9.222;2022-11-20T05:00:08;9.10;1.50
702;DHT22;334;48.808;9.222;2022-11-20T05:01:17;9.10;1.20
702;DHT22;334;48.808;9.222;2022-11-20T05:02:19;9.10;1.80
702;DHT22;334;48.808;9.222;2022-11-20T05:03:21;9.10;1.90
702;DHT22;334;48.808;9.222;2022-11-20T05:04:23;9.10;1.90
702;DHT22;334;48.808;9.222;2022-11-20T05:05:25;9.10;2.00
702;DHT22;334;48.808;9.222;2022-11-20T05:06:27;9.10;1.70
702;DHT22;334;48.808;9.222;2022-11-20T05:07:29;9.10;2.40
702;DHT22;334;48.808;9.222;2022-11-20T05:08:31;9.10;2.10
702;DHT22;334;48.808;9.222;2022-11-20T05:09:33;9.20;2.30
702;DHT22;334;48.808;9.222;2022-11-20T05:10:35;9.20;1.30
702;DHT22;334;48.808;9.222;2022-11-20T05:11:37;9.20;1.30
702;DHT22;334;48.808;9.222;2022-11-20T05:12:39;9.10;1.20
702;DHT22;334;48.808;9.222;2022-11-20T05:13:42;9.10;1.60
702;DHT22;334;48.808;9.222;2022-11-20T05:14:44;9.10;2.00
702;DHT22;334;48.808;9.222;2022-11-20T05:15:46;9.10;1.90
702;DHT22;334;48.808;9.222;2022-11-20T05:16:47;9.10;1.60
702;DHT22;334;48.808;9.222;2022-11-20T05:17:50;9.10;2.00
702;DHT22;334;48.808;9.222;2022-11-20T05:18:53;9.10;2.00
702;DHT22;334;48.808;9.222;2022-11-20T05:19:55;9.10;2.00
702;DHT22;334;48.808;9.222;2022-11-20T05:20:58;9.00;1.80
702;DHT22;334;48.808;9.222;2022-11-20T05:22:00;9.00;1.90
702;DHT22;334;48.808;9.222;2022-11-20T05:23:02;9.10;2.00
702;DHT22;334;48.808;9.222;2022-11-20T05:24:04;9.00;1.80
702;DHT22;334;48.808;9.222;2022-11-20T05:25:09;9.00;2.10
702;DHT22;334;48.808;9.222;2022-11-20T05:26:17;9.00;2.10
702;DHT22;334;48.808;9.222;2022-11-20T05:27:19;9.00;2.20
702;DHT22;334;48.808;9.222;2022-11-20T05:28:24;9.00;2.20
702;DHT22;334;48.808;9.222;2022-11-20T05:29:30;9.00;2.10
702;DHT22;334;48.808;9.222;2022-11-20T05:30:32;9.10;2.30
702;DHT22;334;48.808;9.222;2022-11-20T05:31:34;9.00;2.00
702;DHT22;334;48.808;9.222;2022-11-20T05:32:37;9.10;2.40
702;DHT22;334;48.808;9.222;2022-11-20T05:33:41;9.10;2.50
702;DHT22;334;48.808;9.222;2022-11-20T05:34:43;9.10;2.20
702;DHT22;334;48.808;9.222;2022-11-20T05:35:44;9.10;2.30
702;DHT22;334;48.808;9.222;2022-11-20T05:36:46;9.20;3.00
702;DHT22;334;48.808;9.222;2022-11-20T05:37:49;9.20;1.80
702;DHT22;334;48.808;9.222;2022-11-20T05:38:51;9.20;1.90
702;DHT22;334;48.808;9.222;2022-11-20T05:40:00;9.20;2.00
702;DHT22;334;48.808;9.222;2022-11-20T05:41:17;9.20;2.50
702;DHT22;334;48.808;9.222;2022-11-20T05:42:20;9.20;2.30
702;DHT22;334;48.808;9.222;2022-11-20T05:43:38;9.20;1.70
702;DHT22;334;48.808;9.222;2022-11-20T05:44:40;9.20;1.50
702;DHT22;334;48.808;9.222;2022-11-20T05:45:42;9.20;1.60
702;DHT22;334;48.808;9.222;2022-11-20T05:46:43;9.20;1.30
702;DHT22;334;48.808;9.222;2022-11-20T05:47:45;9.20;1.90
702;DHT22;334;48.808;9.222;2022-11-20T05:48:48;9.20;1.80
702;DHT22;334;48.808;9.222;2022-11-20T05:49:52;9.20;1.80
702;DHT22;334;48.808;9.222;2022-11-20T05:50:58;9.20;2.00
702;DHT22;334;48.808;9.222;2022-11-20T05:51:59;9.20;1.80
702;DHT22;334;48.808;9.222;2022-11-20T05:53:01;9.10;1.80
702;DHT22;334;48.808;9.222;2022-11-20T05:54:04;9.20;1.90
702;DHT22;334;48.808;9.222;2022-11-20T05:55:06;9.20;1.90
702;DHT22;334;48.808;9.222;2022-11-20T05:56:20;9.20;1.70
702;DHT22;334;48.808;9.222;2022-11-20T05:57:22;9.10;1.20
702;DHT22;334;48.808;9.222;2022-11-20T05:58:24;9.10;1.80
702;DHT22;334;48.808;9.222;2022-11-20T05:59:26;9.10;1.80
702;DHT22;334;48.808;9.222;2022-11-20T06:00:28;9.10;1.70
702;DHT22;334;48.808;9.222;2022-11-20T06:01:30;9.10;1.80
702;DHT22;334;48.808;9.222;2022-11-20T06:02:34;9.20;1.60
702;DHT22;334;48.808;9.222;2022-11-20T06:03:37;9.10;1.90
702;DHT22;334;48.808;9.222;2022-11-20T06:04:39;9.20;1.90
702;DHT22;334;48.808;9.222;2022-11-20T06:05:41;9.20;2.00
702;DHT22;334;48.808;9.222;2022-11-20T06:06:43;9.20;2.10
702;DHT22;334;48.808;9.222;2022-11-20T06:07:45;9.10;1.80
702;DHT22;334;48.808;9.222;2022-11-20T06:08:47;9.10;2.00
702;DHT22;334;48.808;9.222;2022-11-20T06:09:49;9.20;2.50
702;DHT22;334;48.808;9.222;2022-11-20T06:10:52;9.20;1.90
702;DHT22;334;48.808;9.222;2022-11-20T06:11:54;9.20;1.70
702;DHT22;334;48.808;9.222;2022-11-20T06:12:58;9.10;1.50
702;DHT22;334;48.808;9.222;2022-11-20T06:14:00;9.10;1.90
702;DHT22;334;48.808;9.222;2022-11-20T06:15:03;9.10;2.00
702;DHT22;334;48.808;9.222;2022-11-20T06:16:07;9.10;1.80
702;DHT22;334;48.808;9.222;2022-11-20T06:17:09;9.10;2.00
702;DHT22;334;48.808;9.222;2022-11-20T06:18:11;9.20;1.80
702;DHT22;334;48.808;9.222;2022-11-20T06:19:13;9.20;1.80
702;DHT22;334;48.808;9.222;2022-11-20T06:20:15;9.20;1.50
702;DHT22;334;48.808;9.222;2022-11-20T06:21:21;9.20;1.80
702;DHT22;334;48.808;9.222;2022-11-20T06:22:23;9.20;1.80
702;DHT22;334;48.808;9.222;2022-11-20T06:23:29;9.20;2.10
702;DHT22;334;48.808;9.222;2022-11-20T06:24:31;9.20;1.70
702;DHT22;334;48.808;9.222;2022-11-20T06:25:33;9.20;1.70
702;DHT22;334;48.808;9.222;2022-11-20T06:26:34;9.20;1.90
702;DHT22;334;48.808;9.222;2022-11-20T06:27:36;9.20;2.10
702;DHT22;334;48.808;9.222;2022-11-20T06:28:38;9.30;1.80
702;DHT22;334;48.808;9.222;2022-11-20T06:29:40;9.30;1.30
702;DHT22;334;48.808;9.222;2022-11-20T06:30:46;9.30;1.30
702;DHT22;334;48.808;9.222;2022-11-20T06:31:51;9.30;1.30
702;DHT22;334;48.808;9.222;2022-11-20T06:32:53;9.30;1.30
702;DHT22;334;48.808;9.222;2022-11-20T06:33:55;9.30;1.30
702;DHT22;334;48.808;9.222;2022-11-20T06:34:57;9.50;1.80
702;DHT22;334;48.808;9.222;2022-11-20T06:36:00;9.30;1.50
702;DHT22;334;48.808;9.222;2022-11-20T06:37:09;9.30;1.30
702;DHT22;334;48.808;9.222;2022-11-20T06:38:11;9.30;1.30
702;DHT22;334;48.808;9.222;2022-11-20T06:39:14;9.30;1.30
702;DHT22;334;48.808;9.222;2022-11-20T06:40:16;9.30;1.30
702;DHT22;334;48.808;9.222;2022-11-20T06:41:21;9.30;1.30
702;DHT22;334;48.808;9.222;2022-11-20T06:42:23;9.30;1.30
702;DHT22;334;48.808;9.222;2022-11-20T06:43:28;9.30;1.30
702;DHT22;334;48.808;9.222;2022-11-20T06:44:31;9.30;1.30
702;DHT22;334;48.808;9.222;2022-11-20T06:45:32;9.30;1.30
702;DHT22;334;48.808;9.222;2022-11-20T06:46:34;9.30;1.30
702;DHT22;334;48.808;9.222;2022-11-20T06:47:36;9.30;1.30
702;DHT22;334;48.808;9.222;2022-11-20T06:48:38;9.30;1.30
702;DHT22;334;48.808;9.222;2022-11-20T06:49:42;9.30;1.30
702;DHT22;334;48.808;9.222;2022-11-20T06:50:44;9.30;1.60
702;DHT22;334;48.808;9.222;2022-11-20T06:51:46;9.30;1.30
702;DHT22;334;48.808;9.222;2022-11-20T06:52:48;9.30;1.30
702;DHT22;334;48.808;9.222;2022-11-20T06:53:50;9.30;1.30
702;DHT22;334;48.808;9.222;2022-11-20T06:54:54;9.30;1.30
702;DHT22;334;48.808;9.222;2022-11-20T06:55:57;9.30;1.30
702;DHT22;334;48.808;9.222;2022-11-20T06:57:01;9.30;1.30
702;DHT22;334;48.808;9.222;2022-11-20T06:58:03;9.30;1.30
702;DHT22;334;48.808;9.222;2022-11-20T06:59:06;9.30;1.30
702;DHT22;334;48.808;9.222;2022-11-20T07:00:10;9.30;1.30
702;DHT22;334;48.808;9.222;2022-11-20T07:01:13;9.30;1.30
702;DHT22;334;48.808;9.222;2022-11-20T07:02:15;9.30;1.30
702;DHT22;334;48.808;9.222;2022-11-20T07:03:18;9.30;1.30
702;DHT22;334;48.808;9.222;2022-11-20T07:04:19;9.30;1.30
702;DHT22;334;48.808;9.222;2022-11-20T07:05:22;9.30;1.30
702;DHT22;334;48.808;9.222;2022-11-20T07:06:23;9.30;1.30
702;DHT22;334;48.808;9.222;2022-11-20T07:07:25;9.30;1.30
702;DHT22;334;48.808;9.222;2022-11-20T07:08:27;9.30;1.30
702;DHT22;334;48.808;9.222;2022-11-20T07:09:29;9.30;1.30
702;DHT22;334;48.808;9.222;2022-11-20T07:10:32;9.30;1.30
702;DHT22;334;48.808;9.222;2022-11-20T07:11:34;9.30;1.40
702;DHT22;334;48.808;9.222;2022-11-20T07:12:36;9.40;1.40
702;DHT22;334;48.808;9.222;2022-11-20T07:13:38;9.40;1.50
702;DHT22;334;48.808;9.222;2022-11-20T07:14:40;9.40;1.40
702;DHT22;334;48.808;9.222;2022-11-20T07:15:42;9.40;1.40
702;DHT22;334;48.808;9.222;2022-11-20T07:16:44;9.40;1.40
702;DHT22;334;48.808;9.222;2022-11-20T07:17:45;9.40;1.00
702;DHT22;334;48.808;9.222;2022-11-20T07:18:47;9.40;1.00
702;DHT22;334;48.808;9.222;2022-11-20T07:19:51;9.40;1.00
702;DHT22;334;48.808;9.222;2022-11-20T07:20:53;9.40;1.20
702;DHT22;334;48.808;9.222;2022-11-20T07:21:55;9.40;1.00
702;DHT22;334;48.808;9.222;2022-11-20T07:22:58;9.40;1.00
702;DHT22;334;48.808;9.222;2022-11-20T07:24:00;9.40;1.20
702;DHT22;334;48.808;9.222;2022-11-20T07:25:02;9.40;1.40
702;DHT22;334;48.808;9.222;2022-11-20T07:26:06;9.40;1.40
702;DHT22;334;48.808;9.222;2022-11-20T07:27:08;9.50;1.50